sensor_id;sensor_type;location;lat;lon;timestamp;pressure;altitude;pressure_sealevel;temperature;humidity
37298;BME280;30517;51.932;4.278;2022-09-30T00:00:35;100849.38;;;12.38;60.21
37298;BME280;30517;51.932;4.278;2022-09-30T00:03:16;100853.84;;;12.34;60.13
37298;BME280;30517;51.932;4.278;2022-09-30T00:06:03;100847.53;;;12.46;60.41
37298;BME280;30517;51.932;4.278;2022-09-30T00:08:45;100851.13;;;12.40;60.61
37298;BME280;30517;51.932;4.278;2022-09-30T00:11:30;100854.66;;;12.43;60.21
37298;BME280;30517;51.932;4.278;2022-09-30T00:14:18;100838.84;;;12.35;59.64
37298;BME280;30517;51.932;4.278;2022-09-30T00:16:59;100804.72;;;12.06;60.02
37298;BME280;30517;51.932;4.278;2022-09-30T00:19:40;100822.28;;;12.16;60.10
37298;BME280;30517;51.932;4.278;2022-09-30T00:22:21;100856.41;;;12.39;60.45
37298;BME280;30517;51.932;4.278;2022-09-30T00:25:02;100854.72;;;12.33;60.67
37298;BME280;30517;51.932;4.278;2022-09-30T00:27:43;100816.13;;;12.14;60.47
37298;BME280;30517;51.932;4.278;2022-09-30T00:30:24;100840.72;;;12.22;59.94
37298;BME280;30517;51.932;4.278;2022-09-30T00:33:05;100849.38;;;12.39;59.84
37298;BME280;30517;51.932;4.278;2022-09-30T00:35:46;100851.25;;;12.25;60.59
37298;BME280;30517;51.932;4.278;2022-09-30T00:38:27;100850.38;;;12.29;60.67
37298;BME280;30517;51.932;4.278;2022-09-30T00:41:08;100664.59;;;11.08;60.71
37298;BME280;30517;51.932;4.278;2022-09-30T00:43:49;100821.34;;;12.20;60.54
37298;BME280;30517;51.932;4.278;2022-09-30T00:49:19;100795.91;;;12.08;60.00
37298;BME280;30517;51.932;4.278;2022-09-30T00:52:01;100835.38;;;12.30;60.42
37298;BME280;30517;51.932;4.278;2022-09-30T00:54:42;100806.53;;;12.01;60.29
37298;BME280;30517;51.932;4.278;2022-09-30T00:57:24;100836.22;;;12.30;59.83
37298;BME280;30517;51.932;4.278;2022-09-30T01:00:05;100834.44;;;12.37;59.97
37298;BME280;30517;51.932;4.278;2022-09-30T01:02:46;100838.84;;;12.33;60.07
37298;BME280;30517;51.932;4.278;2022-09-30T01:05:31;100831.03;;;12.20;60.42
37298;BME280;30517;51.932;4.278;2022-09-30T01:08:12;100843.28;;;12.28;60.19
37298;BME280;30517;51.932;4.278;2022-09-30T01:10:53;100827.50;;;12.22;60.23
37298;BME280;30517;51.932;4.278;2022-09-30T01:13:35;100806.53;;;12.02;60.18
37298;BME280;30517;51.932;4.278;2022-09-30T01:34:40;100844.31;;;12.18;60.45
37298;BME280;30517;51.932;4.278;2022-09-30T01:40:22;100847.84;;;12.15;60.14
37298;BME280;30517;51.932;4.278;2022-09-30T01:43:13;100848.69;;;12.21;59.91
37298;BME280;30517;51.932;4.278;2022-09-30T01:45:57;100834.66;;;12.11;59.65
37298;BME280;30517;51.932;4.278;2022-09-30T01:51:57;100817.13;;;12.01;60.12
37298;BME280;30517;51.932;4.278;2022-09-30T01:57:54;100837.25;;;12.17;59.85
37298;BME280;30517;51.932;4.278;2022-09-30T02:00:39;100822.34;;;12.07;59.80
37298;BME280;30517;51.932;4.278;2022-09-30T02:03:29;100835.56;;;12.07;60.01
37298;BME280;30517;51.932;4.278;2022-09-30T02:06:17;100842.56;;;12.15;59.46
37298;BME280;30517;51.932;4.278;2022-09-30T02:11:43;100835.53;;;12.11;60.14
37298;BME280;30517;51.932;4.278;2022-09-30T02:14:28;100833.75;;;12.12;59.74
37298;BME280;30517;51.932;4.278;2022-09-30T02:17:18;100837.38;;;11.99;60.03
37298;BME280;30517;51.932;4.278;2022-09-30T02:20:11;100850.56;;;12.05;60.10
37298;BME280;30517;51.932;4.278;2022-09-30T02:26:03;100853.25;;;11.99;60.12
37298;BME280;30517;51.932;4.278;2022-09-30T02:28:51;100862.06;;;12.01;60.37
37298;BME280;30517;51.932;4.278;2022-09-30T02:31:36;100856.78;;;11.98;60.33
37298;BME280;30517;51.932;4.278;2022-09-30T02:34:24;100857.69;;;11.97;59.70
37298;BME280;30517;51.932;4.278;2022-09-30T02:37:11;100859.44;;;11.99;59.50
37298;BME280;30517;51.932;4.278;2022-09-30T02:40:02;100865.59;;;12.00;59.88
37298;BME280;30517;51.932;4.278;2022-09-30T02:42:44;100860.38;;;11.92;60.31
37298;BME280;30517;51.932;4.278;2022-09-30T02:45:26;100826.94;;;11.80;60.24
37298;BME280;30517;51.932;4.278;2022-09-30T02:48:46;100859.47;;;11.93;59.96
37298;BME280;30517;51.932;4.278;2022-09-30T02:51:44;100837.47;;;11.89;59.44
37298;BME280;30517;51.932;4.278;2022-09-30T02:54:40;100848.91;;;11.90;59.77
37298;BME280;30517;51.932;4.278;2022-09-30T03:00:51;100858.56;;;11.95;59.40
37298;BME280;30517;51.932;4.278;2022-09-30T03:03:37;100851.56;;;11.85;60.37
37298;BME280;30517;51.932;4.278;2022-09-30T03:06:20;100858.63;;;11.88;59.86
37298;BME280;30517;51.932;4.278;2022-09-30T03:09:02;100857.75;;;11.81;60.16
37298;BME280;30517;51.932;4.278;2022-09-30T03:11:43;100805.09;;;11.57;60.26
37298;BME280;30517;51.932;4.278;2022-09-30T03:14:40;100868.34;;;11.77;60.24
37298;BME280;30517;51.932;4.278;2022-09-30T03:17:33;100863.06;;;11.77;59.81
37298;BME280;30517;51.932;4.278;2022-09-30T03:26:36;100877.25;;;11.65;59.97
37298;BME280;30517;51.932;4.278;2022-09-30T03:29:34;100876.28;;;11.78;59.84
37298;BME280;30517;51.932;4.278;2022-09-30T03:38:49;100893.03;;;11.76;59.98
37298;BME280;30517;51.932;4.278;2022-09-30T03:41:51;100886.91;;;11.66;60.46
37298;BME280;30517;51.932;4.278;2022-09-30T03:44:44;100889.59;;;11.63;60.31
37298;BME280;30517;51.932;4.278;2022-09-30T03:47:29;100898.38;;;11.65;60.45
37298;BME280;30517;51.932;4.278;2022-09-30T03:50:14;100898.44;;;11.59;60.05
37298;BME280;30517;51.932;4.278;2022-09-30T03:52:57;100897.53;;;11.58;60.58
37298;BME280;30517;51.932;4.278;2022-09-30T03:55:49;100865.06;;;11.42;60.28
37298;BME280;30517;51.932;4.278;2022-09-30T03:58:31;100900.25;;;11.50;60.10
37298;BME280;30517;51.932;4.278;2022-09-30T04:01:18;100900.22;;;11.54;60.01
37298;BME280;30517;51.932;4.278;2022-09-30T04:04:00;100877.41;;;11.40;60.53
37298;BME280;30517;51.932;4.278;2022-09-30T04:06:41;100888.81;;;11.44;60.16
37298;BME280;30517;51.932;4.278;2022-09-30T04:09:22;100915.13;;;11.62;59.91
37298;BME280;30517;51.932;4.278;2022-09-30T04:12:03;100889.66;;;11.47;60.39
37298;BME280;30517;51.932;4.278;2022-09-30T04:14:44;100908.13;;;11.57;60.04
37298;BME280;30517;51.932;4.278;2022-09-30T04:17:25;100909.91;;;11.56;60.31
37298;BME280;30517;51.932;4.278;2022-09-30T04:20:06;100908.16;;;11.50;59.90
37298;BME280;30517;51.932;4.278;2022-09-30T04:22:47;100909.91;;;11.51;59.84
37298;BME280;30517;51.932;4.278;2022-09-30T04:25:28;100885.47;;;11.03;61.89
37298;BME280;30517;51.932;4.278;2022-09-30T04:28:09;100911.75;;;11.34;63.15
37298;BME280;30517;51.932;4.278;2022-09-30T04:30:50;100898.59;;;11.22;62.38
37298;BME280;30517;51.932;4.278;2022-09-30T04:33:31;100911.75;;;11.33;61.95
37298;BME280;30517;51.932;4.278;2022-09-30T04:36:12;100898.56;;;11.34;60.97
37298;BME280;30517;51.932;4.278;2022-09-30T04:38:53;100901.19;;;11.37;61.03
37298;BME280;30517;51.932;4.278;2022-09-30T04:41:34;100895.91;;;11.31;61.04
37298;BME280;30517;51.932;4.278;2022-09-30T04:44:15;100906.53;;;11.22;60.83
37298;BME280;30517;51.932;4.278;2022-09-30T04:46:56;100924.06;;;11.38;61.04
37298;BME280;30517;51.932;4.278;2022-09-30T04:49:37;100891.56;;;11.19;60.96
37298;BME280;30517;51.932;4.278;2022-09-30T04:52:18;100894.25;;;11.08;61.32
37298;BME280;30517;51.932;4.278;2022-09-30T04:54:58;100911.75;;;11.31;60.64
37298;BME280;30517;51.932;4.278;2022-09-30T04:57:42;100896.03;;;11.03;61.35
37298;BME280;30517;51.932;4.278;2022-09-30T05:00:23;100911.81;;;11.10;60.89
37298;BME280;30517;51.932;4.278;2022-09-30T05:03:04;100943.44;;;11.31;60.74
37298;BME280;30517;51.932;4.278;2022-09-30T05:05:45;100892.50;;;10.98;61.12
37298;BME280;30517;51.932;4.278;2022-09-30T05:08:28;100939.06;;;11.30;60.91
37298;BME280;30517;51.932;4.278;2022-09-30T05:11:13;100866.19;;;10.86;60.78
37298;BME280;30517;51.932;4.278;2022-09-30T05:13:57;100946.09;;;11.31;60.71
37298;BME280;30517;51.932;4.278;2022-09-30T05:16:38;100918.88;;;11.11;61.45
37298;BME280;30517;51.932;4.278;2022-09-30T05:19:19;100931.19;;;11.15;60.91
37298;BME280;30517;51.932;4.278;2022-09-30T05:22:00;100928.53;;;11.19;61.07
37298;BME280;30517;51.932;4.278;2022-09-30T05:24:41;100934.72;;;11.11;60.87
37298;BME280;30517;51.932;4.278;2022-09-30T05:27:22;100947.00;;;11.15;60.86
37298;BME280;30517;51.932;4.278;2022-09-30T05:30:04;100938.22;;;11.16;60.92
37298;BME280;30517;51.932;4.278;2022-09-30T05:32:45;100937.34;;;11.15;60.82
37298;BME280;30517;51.932;4.278;2022-09-30T05:35:26;100945.25;;;11.17;60.77
37298;BME280;30517;51.932;4.278;2022-09-30T05:38:08;100799.44;;;10.39;60.77
37298;BME280;30517;51.932;4.278;2022-09-30T05:40:49;100896.06;;;10.97;60.70
37298;BME280;30517;51.932;4.278;2022-09-30T05:43:30;100925.03;;;11.06;60.94
37298;BME280;30517;51.932;4.278;2022-09-30T05:46:20;100945.25;;;11.20;60.51
37298;BME280;30517;51.932;4.278;2022-09-30T05:49:01;100961.06;;;11.26;60.38
37298;BME280;30517;51.932;4.278;2022-09-30T05:51:42;100918.94;;;10.80;60.70
37298;BME280;30517;51.932;4.278;2022-09-30T05:54:23;100674.84;;;9.65;60.45
37298;BME280;30517;51.932;4.278;2022-09-30T05:57:04;100934.72;;;11.06;60.89
37298;BME280;30517;51.932;4.278;2022-09-30T05:59:46;100943.53;;;11.13;61.00
37298;BME280;30517;51.932;4.278;2022-09-30T06:02:27;100907.50;;;10.82;60.94
37298;BME280;30517;51.932;4.278;2022-09-30T06:05:09;100962.00;;;11.11;61.04
37298;BME280;30517;51.932;4.278;2022-09-30T06:07:50;100918.94;;;10.92;61.17
37298;BME280;30517;51.932;4.278;2022-09-30T06:10:31;100961.13;;;11.11;60.71
37298;BME280;30517;51.932;4.278;2022-09-30T06:13:12;100962.00;;;11.06;61.00
37298;BME280;30517;51.932;4.278;2022-09-30T06:15:56;100949.72;;;11.02;61.23
37298;BME280;30517;51.932;4.278;2022-09-30T06:18:38;100962.00;;;11.11;60.64
37298;BME280;30517;51.932;4.278;2022-09-30T06:21:20;100944.44;;;10.98;60.72
37298;BME280;30517;51.932;4.278;2022-09-30T06:24:01;100862.75;;;10.56;60.06
37298;BME280;30517;51.932;4.278;2022-09-30T06:26:42;100940.88;;;11.03;60.78
37298;BME280;30517;51.932;4.278;2022-09-30T06:29:23;100948.81;;;11.03;61.03
37298;BME280;30517;51.932;4.278;2022-09-30T06:32:05;100934.78;;;10.94;64.16
37298;BME280;30517;51.932;4.278;2022-09-30T06:34:45;100915.44;;;10.84;62.79
37298;BME280;30517;51.932;4.278;2022-09-30T06:37:26;100974.28;;;11.21;62.24
37298;BME280;30517;51.932;4.278;2022-09-30T06:40:08;100978.72;;;11.12;61.92
37298;BME280;30517;51.932;4.278;2022-09-30T06:42:49;100959.38;;;11.13;63.68
37298;BME280;30517;51.932;4.278;2022-09-30T06:45:30;100976.91;;;11.23;62.85
37298;BME280;30517;51.932;4.278;2022-09-30T06:48:12;100939.16;;;10.95;62.17
37298;BME280;30517;51.932;4.278;2022-09-30T06:50:57;100969.94;;;11.00;62.40
37298;BME280;30517;51.932;4.278;2022-09-30T06:53:38;100961.97;;;11.10;62.21
37298;BME280;30517;51.932;4.278;2022-09-30T06:56:19;100975.16;;;11.17;61.62
37298;BME280;30517;51.932;4.278;2022-09-30T06:59:00;100961.13;;;11.14;61.67
37298;BME280;30517;51.932;4.278;2022-09-30T07:01:40;100969.03;;;11.17;61.68
37298;BME280;30517;51.932;4.278;2022-09-30T07:04:23;100972.53;;;11.19;61.85
37298;BME280;30517;51.932;4.278;2022-09-30T07:07:04;100969.91;;;11.11;61.58
37298;BME280;30517;51.932;4.278;2022-09-30T07:09:46;100969.94;;;11.13;61.87
37298;BME280;30517;51.932;4.278;2022-09-30T07:12:27;100965.50;;;11.12;61.49
37298;BME280;30517;51.932;4.278;2022-09-30T07:15:08;100963.78;;;11.07;61.73
37298;BME280;30517;51.932;4.278;2022-09-30T07:17:52;100963.75;;;11.14;61.28
37298;BME280;30517;51.932;4.278;2022-09-30T07:20:35;100948.81;;;11.06;61.28
37298;BME280;30517;51.932;4.278;2022-09-30T07:23:16;100956.72;;;11.11;61.47
37298;BME280;30517;51.932;4.278;2022-09-30T07:26:00;100950.56;;;11.14;61.49
37298;BME280;30517;51.932;4.278;2022-09-30T07:28:44;100961.97;;;11.14;61.41
37298;BME280;30517;51.932;4.278;2022-09-30T07:31:25;100956.72;;;11.16;61.06
37298;BME280;30517;51.932;4.278;2022-09-30T07:34:08;100960.25;;;11.13;61.68
37298;BME280;30517;51.932;4.278;2022-09-30T07:36:49;100957.56;;;11.18;61.11
37298;BME280;30517;51.932;4.278;2022-09-30T07:39:29;100938.22;;;11.14;60.87
37298;BME280;30517;51.932;4.278;2022-09-30T07:42:11;100962.88;;;11.12;61.21
37298;BME280;30517;51.932;4.278;2022-09-30T07:44:52;100962.00;;;11.13;61.29
37298;BME280;30517;51.932;4.278;2022-09-30T07:47:33;100960.25;;;11.04;61.11
37298;BME280;30517;51.932;4.278;2022-09-30T07:50:14;100964.63;;;11.16;61.22
37298;BME280;30517;51.932;4.278;2022-09-30T07:52:56;100952.28;;;11.18;61.17
37298;BME280;30517;51.932;4.278;2022-09-30T07:55:36;100877.63;;;10.71;61.07
37298;BME280;30517;51.932;4.278;2022-09-30T07:58:17;100961.09;;;11.17;61.01
37298;BME280;30517;51.932;4.278;2022-09-30T08:00:58;100967.28;;;11.16;61.06
37298;BME280;30517;51.932;4.278;2022-09-30T08:03:40;100961.97;;;11.17;61.20
37298;BME280;30517;51.932;4.278;2022-09-30T08:06:24;100958.44;;;11.20;61.18
37298;BME280;30517;51.932;4.278;2022-09-30T08:09:06;100961.09;;;11.20;61.19
37298;BME280;30517;51.932;4.278;2022-09-30T08:11:47;100968.13;;;11.15;61.39
37298;BME280;30517;51.932;4.278;2022-09-30T08:14:28;100880.31;;;10.67;61.62
37298;BME280;30517;51.932;4.278;2022-09-30T08:17:09;100947.00;;;11.18;61.06
37298;BME280;30517;51.932;4.278;2022-09-30T08:19:49;100955.81;;;11.20;60.90
37298;BME280;30517;51.932;4.278;2022-09-30T08:22:30;100951.38;;;11.25;60.63
37298;BME280;30517;51.932;4.278;2022-09-30T08:25:11;100948.72;;;11.33;61.10
37298;BME280;30517;51.932;4.278;2022-09-30T08:27:52;100950.50;;;11.23;60.57
37298;BME280;30517;51.932;4.278;2022-09-30T08:30:35;100942.59;;;11.20;60.48
37298;BME280;30517;51.932;4.278;2022-09-30T08:33:16;100958.44;;;11.29;61.50
37298;BME280;30517;51.932;4.278;2022-09-30T08:36:01;100958.41;;;11.30;61.47
37298;BME280;30517;51.932;4.278;2022-09-30T08:38:42;100919.75;;;11.16;60.71
37298;BME280;30517;51.932;4.278;2022-09-30T08:53:25;100955.78;;;11.32;61.35
37298;BME280;30517;51.932;4.278;2022-09-30T08:56:07;100972.47;;;11.40;60.74
37298;BME280;30517;51.932;4.278;2022-09-30T08:58:50;100976.84;;;11.41;60.91
37298;BME280;30517;51.932;4.278;2022-09-30T09:01:37;100973.34;;;11.45;61.03
37298;BME280;30517;51.932;4.278;2022-09-30T09:04:19;100968.91;;;11.44;61.17
37298;BME280;30517;51.932;4.278;2022-09-30T09:07:54;100975.97;;;11.45;61.11
37298;BME280;30517;51.932;4.278;2022-09-30T09:10:35;100982.13;;;11.54;60.99
37298;BME280;30517;51.932;4.278;2022-09-30T09:13:45;100983.84;;;11.58;60.96
37298;BME280;30517;51.932;4.278;2022-09-30T09:16:34;100981.22;;;11.59;60.77
37298;BME280;30517;51.932;4.278;2022-09-30T09:19:22;100987.41;;;11.54;60.57
37298;BME280;30517;51.932;4.278;2022-09-30T09:22:08;100982.97;;;11.62;60.25
37298;BME280;30517;51.932;4.278;2022-09-30T09:24:50;100964.50;;;11.54;60.38
37298;BME280;30517;51.932;4.278;2022-09-30T09:27:51;100971.53;;;11.47;60.70
37298;BME280;30517;51.932;4.278;2022-09-30T09:30:39;100973.28;;;11.59;60.75
37298;BME280;30517;51.932;4.278;2022-09-30T09:33:49;100984.69;;;11.63;60.75
37298;BME280;30517;51.932;4.278;2022-09-30T09:39:37;100983.75;;;11.76;60.24
37298;BME280;30517;51.932;4.278;2022-09-30T09:43:01;100984.63;;;11.81;60.37
37298;BME280;30517;51.932;4.278;2022-09-30T09:54:52;100975.84;;;11.73;60.94
37298;BME280;30517;51.932;4.278;2022-09-30T09:57:37;100974.94;;;11.80;61.22
37298;BME280;30517;51.932;4.278;2022-09-30T10:00:23;100974.91;;;11.94;60.32
37298;BME280;30517;51.932;4.278;2022-09-30T10:03:24;100970.47;;;11.96;60.50
37298;BME280;30517;51.932;4.278;2022-09-30T10:06:10;100966.97;;;11.92;60.07
37298;BME280;30517;51.932;4.278;2022-09-30T10:08:54;100984.50;;;12.04;59.58
37298;BME280;30517;51.932;4.278;2022-09-30T10:11:36;100973.13;;;11.99;64.12
37298;BME280;30517;51.932;4.278;2022-09-30T10:14:19;100973.91;;;12.10;61.26
37298;BME280;30517;51.932;4.278;2022-09-30T10:17:04;100940.53;;;11.94;62.07
37298;BME280;30517;51.932;4.278;2022-09-30T10:19:53;100973.88;;;12.18;61.79
37298;BME280;30517;51.932;4.278;2022-09-30T10:22:35;100955.41;;;12.09;61.35
37298;BME280;30517;51.932;4.278;2022-09-30T10:25:22;100970.34;;;12.21;61.24
37298;BME280;30517;51.932;4.278;2022-09-30T10:28:19;100956.38;;;11.95;62.72
37298;BME280;30517;51.932;4.278;2022-09-30T10:31:15;100969.47;;;12.14;61.87
37298;BME280;30517;51.932;4.278;2022-09-30T10:36:43;100973.75;;;12.35;61.16
37298;BME280;30517;51.932;4.278;2022-09-30T10:39:31;100953.47;;;12.31;60.67
37298;BME280;30517;51.932;4.278;2022-09-30T10:42:19;100970.16;;;12.39;60.76
37298;BME280;30517;51.932;4.278;2022-09-30T10:45:04;100972.06;;;12.22;61.40
37298;BME280;30517;51.932;4.278;2022-09-30T10:47:52;100962.25;;;12.37;61.38
37298;BME280;30517;51.932;4.278;2022-09-30T10:50:34;100963.13;;;12.36;61.20
37298;BME280;30517;51.932;4.278;2022-09-30T10:53:24;100956.91;;;12.44;60.93
37298;BME280;30517;51.932;4.278;2022-09-30T10:56:05;100963.16;;;12.33;61.92
37298;BME280;30517;51.932;4.278;2022-09-30T10:58:48;100955.19;;;12.36;61.37
37298;BME280;30517;51.932;4.278;2022-09-30T11:01:45;100964.75;;;12.53;61.01
37298;BME280;30517;51.932;4.278;2022-09-30T11:04:29;100960.41;;;12.50;61.12
37298;BME280;30517;51.932;4.278;2022-09-30T11:07:29;100969.19;;;12.54;61.53
37298;BME280;30517;51.932;4.278;2022-09-30T11:10:25;100958.66;;;12.45;62.64
37298;BME280;30517;51.932;4.278;2022-09-30T11:16:11;100948.91;;;12.51;61.43
37298;BME280;30517;51.932;4.278;2022-09-30T11:19:18;100928.66;;;12.49;61.19
37298;BME280;30517;51.932;4.278;2022-09-30T11:22:35;100952.25;;;12.72;60.63
37298;BME280;30517;51.932;4.278;2022-09-30T11:25:25;100932.94;;;12.62;60.91
37298;BME280;30517;51.932;4.278;2022-09-30T11:31:18;100944.38;;;12.67;61.91
37298;BME280;30517;51.932;4.278;2022-09-30T11:34:17;100941.66;;;12.72;63.81
37298;BME280;30517;51.932;4.278;2022-09-30T11:43:17;100938.59;;;13.13;62.51
37298;BME280;30517;51.932;4.278;2022-09-30T11:46:13;100927.06;;;13.17;62.18
37298;BME280;30517;51.932;4.278;2022-09-30T11:49:41;100927.03;;;13.20;61.89
37298;BME280;30517;51.932;4.278;2022-09-30T11:52:19;100930.53;;;13.24;61.48
37298;BME280;30517;51.932;4.278;2022-09-30T11:58:13;100927.00;;;13.26;61.21
37298;BME280;30517;51.932;4.278;2022-09-30T12:01:13;100911.97;;;13.25;60.97
37298;BME280;30517;51.932;4.278;2022-09-30T12:04:00;100829.59;;;12.77;60.92
37298;BME280;30517;51.932;4.278;2022-09-30T12:06:52;100910.13;;;13.34;60.99
37298;BME280;30517;51.932;4.278;2022-09-30T12:09:40;100899.59;;;13.27;61.01
37298;BME280;30517;51.932;4.278;2022-09-30T12:12:22;100909.25;;;13.33;60.73
37298;BME280;30517;51.932;4.278;2022-09-30T12:15:05;100908.38;;;13.33;61.42
37298;BME280;30517;51.932;4.278;2022-09-30T12:17:49;100908.34;;;13.36;60.97
37298;BME280;30517;51.932;4.278;2022-09-30T12:20:38;100907.56;;;13.29;61.46
37298;BME280;30517;51.932;4.278;2022-09-30T12:23:34;100865.28;;;13.18;61.57
37298;BME280;30517;51.932;4.278;2022-09-30T12:26:18;100909.97;;;13.47;61.08
37298;BME280;30517;51.932;4.278;2022-09-30T12:29:04;100888.94;;;13.34;61.08
37298;BME280;30517;51.932;4.278;2022-09-30T12:35:40;100897.63;;;13.45;61.30
37298;BME280;30517;51.932;4.278;2022-09-30T12:38:51;100898.56;;;13.42;61.03
37298;BME280;30517;51.932;4.278;2022-09-30T12:47:49;100882.38;;;13.61;61.44
37298;BME280;30517;51.932;4.278;2022-09-30T12:50:50;100879.66;;;13.65;61.23
37298;BME280;30517;51.932;4.278;2022-09-30T12:53:36;100869.88;;;13.72;60.77
37298;BME280;30517;51.932;4.278;2022-09-30T12:56:18;100876.00;;;13.76;61.04
37298;BME280;30517;51.932;4.278;2022-09-30T12:59:00;100861.88;;;13.73;60.52
37298;BME280;30517;51.932;4.278;2022-09-30T13:01:41;100867.06;;;13.83;60.54
37298;BME280;30517;51.932;4.278;2022-09-30T13:04:36;100853.97;;;13.70;60.63
37298;BME280;30517;51.932;4.278;2022-09-30T13:07:21;100845.06;;;13.76;60.32
37298;BME280;30517;51.932;4.278;2022-09-30T13:10:28;100867.72;;;13.95;60.22
37298;BME280;30517;51.932;4.278;2022-09-30T13:13:21;100855.53;;;13.84;59.94
37298;BME280;30517;51.932;4.278;2022-09-30T13:16:03;100859.88;;;13.91;59.94
37298;BME280;30517;51.932;4.278;2022-09-30T13:21:26;100848.28;;;13.95;59.55
37298;BME280;30517;51.932;4.278;2022-09-30T13:24:07;100856.88;;;14.12;59.54
37298;BME280;30517;51.932;4.278;2022-09-30T13:27:05;100855.31;;;13.98;59.03
37298;BME280;30517;51.932;4.278;2022-09-30T13:29:46;100841.81;;;14.11;56.97
37298;BME280;30517;51.932;4.278;2022-09-30T13:32:36;100844.06;;;14.36;57.02
37298;BME280;30517;51.932;4.278;2022-09-30T13:38:37;100845.34;;;14.63;57.32
37298;BME280;30517;51.932;4.278;2022-09-30T13:41:22;100855.03;;;14.66;57.55
37298;BME280;30517;51.932;4.278;2022-09-30T13:44:13;100853.25;;;14.68;58.04
37298;BME280;30517;51.932;4.278;2022-09-30T13:47:00;100846.06;;;14.73;57.92
37298;BME280;30517;51.932;4.278;2022-09-30T13:49:56;100840.69;;;14.76;57.80
37298;BME280;30517;51.932;4.278;2022-09-30T13:52:39;100837.19;;;14.74;57.99
37298;BME280;30517;51.932;4.278;2022-09-30T13:55:21;100836.91;;;14.89;57.74
37298;BME280;30517;51.932;4.278;2022-09-30T14:01:33;100833.94;;;15.03;57.54
37298;BME280;30517;51.932;4.278;2022-09-30T14:16:02;100790.06;;;15.25;57.10
37298;BME280;30517;51.932;4.278;2022-09-30T14:21:47;100787.84;;;15.46;57.44
37298;BME280;30517;51.932;4.278;2022-09-30T14:24:29;100788.44;;;15.57;57.09
37298;BME280;30517;51.932;4.278;2022-09-30T14:32:46;100798.72;;;15.74;57.19
37298;BME280;30517;51.932;4.278;2022-09-30T14:35:31;100758.25;;;15.60;57.09
37298;BME280;30517;51.932;4.278;2022-09-30T14:38:18;100792.19;;;15.87;57.07
37298;BME280;30517;51.932;4.278;2022-09-30T14:41:03;100753.63;;;15.68;57.27
37298;BME280;30517;51.932;4.278;2022-09-30T14:43:50;100785.03;;;15.89;57.17
37298;BME280;30517;51.932;4.278;2022-09-30T14:46:39;100807.94;;;15.97;57.02
37298;BME280;30517;51.932;4.278;2022-09-30T14:49:28;100787.41;;;16.02;57.08
37298;BME280;30517;51.932;4.278;2022-09-30T14:52:36;100766.41;;;15.89;57.54
37298;BME280;30517;51.932;4.278;2022-09-30T14:55:34;100786.41;;;16.06;57.49
37298;BME280;30517;51.932;4.278;2022-09-30T14:58:20;100784.56;;;16.08;57.62
37298;BME280;30517;51.932;4.278;2022-09-30T15:01:16;100775.91;;;16.00;58.10
37298;BME280;30517;51.932;4.278;2022-09-30T15:04:02;100779.22;;;16.09;57.93
37298;BME280;30517;51.932;4.278;2022-09-30T15:06:46;100773.16;;;16.04;58.26
37298;BME280;30517;51.932;4.278;2022-09-30T15:09:32;100790.75;;;16.10;58.11
37298;BME280;30517;51.932;4.278;2022-09-30T15:12:17;100777.66;;;16.01;58.11
37298;BME280;30517;51.932;4.278;2022-09-30T15:14:59;100784.56;;;16.09;58.47
37298;BME280;30517;51.932;4.278;2022-09-30T15:17:40;100776.56;;;16.09;58.06
37298;BME280;30517;51.932;4.278;2022-09-30T15:20:29;100786.19;;;16.15;58.06
37298;BME280;30517;51.932;4.278;2022-09-30T15:23:25;100789.66;;;16.17;58.50
37298;BME280;30517;51.932;4.278;2022-09-30T15:26:09;100771.19;;;16.11;58.12
37298;BME280;30517;51.932;4.278;2022-09-30T15:28:51;100786.91;;;16.20;58.32
37298;BME280;30517;51.932;4.278;2022-09-30T15:31:33;100763.28;;;16.08;58.11
37298;BME280;30517;51.932;4.278;2022-09-30T15:34:16;100756.97;;;16.12;57.84
37298;BME280;30517;51.932;4.278;2022-09-30T15:37:00;100769.09;;;16.24;57.96
37298;BME280;30517;51.932;4.278;2022-09-30T15:39:50;100748.09;;;16.13;58.01
37298;BME280;30517;51.932;4.278;2022-09-30T15:42:57;100782.31;;;16.25;58.00
37298;BME280;30517;51.932;4.278;2022-09-30T15:45:43;100773.44;;;16.26;57.93
37298;BME280;30517;51.932;4.278;2022-09-30T15:51:30;100776.06;;;16.28;58.00
37298;BME280;30517;51.932;4.278;2022-09-30T15:56:58;100760.97;;;16.28;57.94
37298;BME280;30517;51.932;4.278;2022-09-30T16:00:00;100745.31;;;16.18;57.83
37298;BME280;30517;51.932;4.278;2022-09-30T16:02:42;100753.91;;;16.27;58.12
37298;BME280;30517;51.932;4.278;2022-09-30T16:05:23;100766.31;;;16.28;57.87
37298;BME280;30517;51.932;4.278;2022-09-30T16:08:08;100753.97;;;16.24;58.22
37298;BME280;30517;51.932;4.278;2022-09-30T16:10:52;100759.03;;;16.01;57.45
37298;BME280;30517;51.932;4.278;2022-09-30T16:13:35;100757.50;;;16.25;56.55
37298;BME280;30517;51.932;4.278;2022-09-30T16:16:20;100756.66;;;16.24;56.89
37298;BME280;30517;51.932;4.278;2022-09-30T16:19:03;100752.16;;;16.26;56.72
37298;BME280;30517;51.932;4.278;2022-09-30T16:21:49;100736.34;;;16.20;57.61
37298;BME280;30517;51.932;4.278;2022-09-30T16:27:25;100729.28;;;16.19;57.42
37298;BME280;30517;51.932;4.278;2022-09-30T16:30:13;100720.53;;;16.14;57.57
37298;BME280;30517;51.932;4.278;2022-09-30T16:32:56;100717.78;;;16.17;57.41
37298;BME280;30517;51.932;4.278;2022-09-30T16:35:40;100726.78;;;16.13;57.51
37298;BME280;30517;51.932;4.278;2022-09-30T16:38:21;100718.72;;;16.16;57.75
37298;BME280;30517;51.932;4.278;2022-09-30T16:41:03;100737.03;;;16.28;57.43
37298;BME280;30517;51.932;4.278;2022-09-30T16:43:43;100720.47;;;16.17;57.62
37298;BME280;30517;51.932;4.278;2022-09-30T16:46:24;100723.03;;;16.20;57.99
37298;BME280;30517;51.932;4.278;2022-09-30T16:49:12;100719.50;;;16.20;58.08